Time;durP1;ratioP1;P1;durP2;ratioP2;P2;SDS_P1;SDS_P2;PMS_P1;PMS_P2;Temp;Humidity;BMP_temperature;BMP_pressure;BME280_temperature;BME280_humidity;BME280_pressure;Samples;Min_cycle;Max_cycle;Signal;HPM_P1;HPM_P2
2023/01/30 00:00:59;;;;;;;170.07;154.10;;;6.50;99.90;;;;;;5072198;28;20055;-78
2023/01/30 00:03:25;;;;;;;30.83;21.97;;;6.50;99.90;;;;;;5067166;28;20055;-78
2023/01/30 00:05:50;;;;;;;57.67;52.13;;;6.60;99.90;;;;;;5071524;28;20040;-77
2023/01/30 00:08:16;;;;;;;23.47;18.50;;;6.50;99.90;;;;;;5055941;28;20040;-78
2023/01/30 00:10:43;;;;;;;37.60;33.80;;;6.50;99.90;;;;;;5071933;28;20119;-78
2023/01/30 00:13:09;;;;;;;52.47;47.80;;;6.50;99.90;;;;;;5070203;28;20045;-77
2023/01/30 00:15:35;;;;;;;30.90;18.43;;;6.50;99.90;;;;;;5071926;28;20064;-78
2023/01/30 00:18:01;;;;;;;286.40;260.43;;;6.50;99.90;;;;;;5054464;28;20128;-79
2023/01/30 00:20:26;;;;;;;112.07;101.17;;;6.60;99.90;;;;;;5070801;28;20411;-77
2023/01/30 00:22:52;;;;;;;25.27;13.83;;;6.50;99.90;;;;;;5069597;28;20041;-76
2023/01/30 00:25:18;;;;;;;40.50;36.57;;;6.60;99.90;;;;;;5070837;28;20040;-79
2023/01/30 00:27:43;;;;;;;26.87;12.03;;;6.60;99.90;;;;;;5054760;28;20076;-78
2023/01/30 00:30:10;;;;;;;26.03;17.50;;;6.60;99.90;;;;;;5071396;28;20061;-78
2023/01/30 00:32:35;;;;;;;28.33;15.53;;;6.60;99.90;;;;;;5070251;28;20052;-78
2023/01/30 00:35:01;;;;;;;36.40;28.17;;;6.50;99.90;;;;;;5072068;28;20044;-78
2023/01/30 00:37:27;;;;;;;122.53;113.23;;;6.40;99.90;;;;;;5055315;28;20081;-78
2023/01/30 00:39:52;;;;;;;36.10;20.80;;;6.30;99.90;;;;;;5071454;28;20056;-77
2023/01/30 00:47:49;;;;;;;55.27;50.17;;;6.30;99.90;;;;;;5051009;28;20159;-77
2023/01/30 00:50:15;;;;;;;37.33;32.30;;;6.30;99.90;;;;;;5070426;28;20577;-77
2023/01/30 00:52:40;;;;;;;126.73;115.30;;;6.30;99.90;;;;;;5070098;28;20045;-77
2023/01/30 00:55:07;;;;;;;31.47;26.63;;;6.30;99.90;;;;;;5070178;28;20486;-77
2023/01/30 00:57:32;;;;;;;33.03;26.53;;;6.20;99.90;;;;;;5052130;28;20070;-78
2023/01/30 00:59:58;;;;;;;66.63;60.80;;;6.20;99.90;;;;;;5071123;28;20045;-77
2023/01/30 01:02:24;;;;;;;29.17;16.27;;;6.20;99.90;;;;;;5069883;28;20409;-77
2023/01/30 01:04:49;;;;;;;197.80;180.70;;;6.10;99.90;;;;;;5071401;28;20047;-77
2023/01/30 01:07:15;;;;;;;137.80;124.87;;;6.20;99.90;;;;;;5053923;28;20102;-77
2023/01/30 01:09:41;;;;;;;33.67;19.57;;;6.20;99.90;;;;;;5070711;28;20058;-80
2023/01/30 01:12:07;;;;;;;45.17;36.13;;;6.20;99.90;;;;;;5069776;28;20037;-77
2023/01/30 01:14:33;;;;;;;232.50;213.07;;;6.20;99.90;;;;;;5069448;28;20109;-76
2023/01/30 01:16:59;;;;;;;60.40;54.70;;;6.20;99.90;;;;;;5055230;28;20389;-76
2023/01/30 01:19:25;;;;;;;29.07;15.00;;;6.20;99.90;;;;;;5069802;28;20407;-77
2023/01/30 01:21:51;;;;;;;31.63;20.27;;;6.30;99.90;;;;;;5069388;28;20045;-77
2023/01/30 01:24:17;;;;;;;201.23;184.70;;;6.20;99.90;;;;;;5069374;28;20075;-77
2023/01/30 01:26:43;;;;;;;276.27;252.50;;;6.30;99.90;;;;;;5053046;28;20098;-78
2023/01/30 01:29:12;;;;;;;78.83;71.87;;;6.20;99.90;;;;;;5068186;28;20048;-77
2023/01/30 01:31:38;;;;;;;69.80;63.77;;;6.20;99.90;;;;;;5069611;28;20061;-77
2023/01/30 01:34:04;;;;;;;45.60;41.00;;;6.20;99.90;;;;;;5070310;28;20117;-77
2023/01/30 01:36:29;;;;;;;31.53;19.43;;;6.20;99.90;;;;;;5055028;28;20051;-78
2023/01/30 01:38:55;;;;;;;111.20;100.83;;;6.30;99.90;;;;;;5068330;28;20052;-77
2023/01/30 01:41:21;;;;;;;37.10;33.40;;;6.10;99.90;;;;;;5069695;28;20044;-78
2023/01/30 01:44:10;;;;;;;49.33;41.73;;;6.30;99.90;;;;;;5070260;28;20080;-77
2023/01/30 01:46:41;;;;;;;32.97;29.10;;;6.30;99.90;;;;;;5054314;28;20512;-77
2023/01/30 01:49:13;;;;;;;;;;;6.30;99.90;;;;;;5070112;28;20048;-78
2023/01/30 01:51:59;;;;;;;330.80;300.85;;;6.30;99.90;;;;;;5070287;28;19966;-77
2023/01/30 01:54:34;;;;;;;35.77;22.80;;;6.30;99.90;;;;;;5048334;28;20036;-77
2023/01/30 01:57:07;;;;;;;37.37;24.87;;;6.30;99.90;;;;;;5054032;28;20415;-77
2023/01/30 01:59:46;;;;;;;150.03;133.40;;;6.30;99.90;;;;;;5067751;28;20040;-77
2023/01/30 02:02:14;;;;;;;36.77;22.30;;;6.40;99.90;;;;;;5067890;28;20075;-77
2023/01/30 02:05:01;;;;;;;62.90;53.20;;;6.40;99.90;;;;;;5070505;28;20048;-77
2023/01/30 02:07:33;;;;;;;362.70;329.77;;;6.50;99.90;;;;;;5049214;28;20041;-80
2023/01/30 02:10:00;;;;;;;58.87;49.93;;;6.50;99.90;;;;;;5069533;28;20087;-77
2023/01/30 02:12:25;;;;;;;41.60;14.50;;;6.50;99.90;;;;;;5067789;28;20049;-77
2023/01/30 02:14:52;;;;;;;49.43;33.93;;;6.50;99.90;;;;;;5070189;28;20143;-77
2023/01/30 02:17:19;;;;;;;62.87;48.37;;;6.50;99.90;;;;;;5051908;28;20058;-77
2023/01/30 02:19:51;;;;;;;42.30;16.87;;;6.60;99.90;;;;;;5069690;28;20079;-77
2023/01/30 02:22:47;;;;;;;135.77;123.33;;;6.50;99.90;;;;;;5068123;28;20098;-77
2023/01/30 02:25:34;;;;;;;41.70;13.33;;;6.60;99.90;;;;;;5065251;28;20394;-76
2023/01/30 02:28:12;;;;;;;46.63;23.07;;;6.60;99.90;;;;;;5048008;28;20056;-77
2023/01/30 02:31:00;;;;;;;56.43;39.03;;;6.50;99.90;;;;;;5068325;28;20044;-77
2023/01/30 02:33:43;;;;;;;41.47;12.87;;;6.60;99.90;;;;;;5068807;28;20383;-77
2023/01/30 02:36:53;;;;;;;45.50;15.27;;;6.50;99.90;;;;;;5056955;28;20056;-78
2023/01/30 02:39:37;;;;;;;39.90;17.87;;;6.60;99.90;;;;;;5067592;28;20052;-76
2023/01/30 02:42:28;;;;;;;45.13;16.67;;;6.60;99.90;;;;;;5064789;28;20056;-76
2023/01/30 02:45:15;;;;;;;29.25;9.00;;;6.60;99.90;;;;;;5068574;28;20040;-77
2023/01/30 02:47:50;;;;;;;186.73;170.17;;;6.70;99.90;;;;;;5051751;28;20597;-77
2023/01/30 02:50:27;;;;;;;126.47;113.93;;;6.70;99.90;;;;;;5051879;28;20056;-77
2023/01/30 02:52:54;;;;;;;59.60;51.90;;;6.80;99.90;;;;;;5066200;28;20059;-77
2023/01/30 02:55:25;;;;;;;60.13;45.57;;;6.70;99.90;;;;;;5068754;28;20080;-78
2023/01/30 02:57:51;;;;;;;37.28;12.70;;;6.60;99.90;;;;;;5052596;28;20421;-77
2023/01/30 03:00:28;;;;;;;45.43;29.60;;;6.60;99.90;;;;;;5068355;28;20074;-77
2023/01/30 03:03:07;;;;;;;51.40;13.33;;;6.60;99.90;;;;;;5067069;28;20040;-77
2023/01/30 03:06:10;;;;;;;40.90;14.50;;;6.60;99.90;;;;;;5067598;28;20068;-77
2023/01/30 03:08:58;;;;;;;31.50;8.77;;;6.50;99.90;;;;;;5062217;28;20053;-77
2023/01/30 03:11:34;;;;;;;40.90;17.23;;;6.50;99.90;;;;;;5065775;28;20048;-76
2023/01/30 03:14:20;;;;;;;31.33;9.17;;;6.60;99.90;;;;;;5068317;28;20051;-77
2023/01/30 03:16:48;;;;;;;200.47;126.60;;;6.60;99.90;;;;;;5049866;28;20048;-76
2023/01/30 03:19:14;;;;;;;37.03;12.70;;;6.60;99.90;;;;;;5066950;28;20044;-77
2023/01/30 03:21:44;;;;;;;110.93;101.53;;;6.60;99.90;;;;;;5068364;28;20453;-78
2023/01/30 03:24:10;;;;;;;33.73;9.13;;;6.60;99.90;;;;;;5067317;28;20087;-77
2023/01/30 03:26:43;;;;;;;107.47;92.90;;;6.50;99.90;;;;;;5052929;28;20063;-76
2023/01/30 03:29:09;;;;;;;36.60;17.53;;;6.50;99.90;;;;;;5068077;28;20052;-78
2023/01/30 03:31:35;;;;;;;28.67;7.40;;;6.40;99.90;;;;;;5067217;28;20053;-77
2023/01/30 03:34:00;;;;;;;33.83;7.80;;;6.50;99.90;;;;;;5067502;28;20115;-78
2023/01/30 03:36:26;;;;;;;41.27;17.67;;;6.40;99.90;;;;;;5055863;28;20367;-77
2023/01/30 03:38:52;;;;;;;32.40;9.37;;;6.30;99.90;;;;;;5065627;28;20048;-77
2023/01/30 03:41:18;;;;;;;38.90;8.10;;;6.20;99.90;;;;;;5067089;28;20136;-77
2023/01/30 03:43:43;;;;;;;29.50;6.80;;;6.20;99.90;;;;;;5068188;28;20068;-77
2023/01/30 03:46:09;;;;;;;32.83;8.33;;;6.10;99.90;;;;;;5059837;28;20056;-77
2023/01/30 03:48:35;;;;;;;50.10;40.43;;;6.00;99.90;;;;;;5058495;28;20060;-78
2023/01/30 03:51:00;;;;;;;35.07;10.30;;;6.00;99.90;;;;;;5068931;28;20044;-77
2023/01/30 03:53:26;;;;;;;35.77;8.23;;;6.10;99.90;;;;;;5067984;28;20057;-77
2023/01/30 03:55:52;;;;;;;34.13;14.03;;;6.00;99.90;;;;;;5066962;28;20131;-77
2023/01/30 03:58:17;;;;;;;40.00;8.10;;;6.00;99.90;;;;;;5051928;28;20125;-77
2023/01/30 04:00:43;;;;;;;78.00;69.93;;;6.00;99.90;;;;;;5068030;28;20334;-77
2023/01/30 04:03:08;;;;;;;68.47;54.70;;;6.00;99.90;;;;;;5067238;28;20052;-77
2023/01/30 04:05:34;;;;;;;44.90;20.73;;;6.10;99.90;;;;;;5067952;28;20122;-77
2023/01/30 04:08:00;;;;;;;41.63;23.07;;;6.00;99.90;;;;;;5051665;28;20056;-76
2023/01/30 04:10:26;;;;;;;31.20;8.47;;;6.10;99.90;;;;;;5068544;28;20444;-78
2023/01/30 04:12:52;;;;;;;42.00;10.40;;;6.00;99.90;;;;;;5066142;28;20050;-76
2023/01/30 04:15:18;;;;;;;33.07;6.87;;;6.00;99.90;;;;;;5068027;28;20368;-78
2023/01/30 04:17:43;;;;;;;34.87;7.30;;;5.80;99.90;;;;;;5051507;28;20059;-77
2023/01/30 04:20:10;;;;;;;28.33;7.97;;;5.90;99.90;;;;;;5068614;28;20044;-77
2023/01/30 04:22:36;;;;;;;32.07;7.10;;;5.80;99.90;;;;;;5067583;28;20563;-77
2023/01/30 04:25:01;;;;;;;31.50;7.27;;;5.70;99.90;;;;;;5068673;28;20048;-78
2023/01/30 04:27:27;;;;;;;47.20;10.13;;;5.60;99.90;;;;;;5036668;28;20398;-77
2023/01/30 04:29:53;;;;;;;34.13;10.37;;;5.70;99.90;;;;;;5070435;28;20087;-77
2023/01/30 04:32:18;;;;;;;31.73;10.07;;;5.60;99.90;;;;;;5070801;28;20217;-77
2023/01/30 04:34:44;;;;;;;42.90;8.77;;;5.50;99.90;;;;;;5070467;28;20059;-77
2023/01/30 04:37:10;;;;;;;46.73;16.33;;;5.50;99.90;;;;;;5054195;28;20055;-77
2023/01/30 04:39:36;;;;;;;44.83;16.27;;;5.50;99.90;;;;;;5071090;28;20437;-77
2023/01/30 04:42:03;;;;;;;36.07;8.90;;;5.60;99.90;;;;;;5052417;28;20045;-77
2023/01/30 04:44:28;;;;;;;46.17;12.80;;;5.50;99.90;;;;;;5070558;28;20076;-77
2023/01/30 04:46:54;;;;;;;47.20;10.80;;;5.50;99.90;;;;;;5055698;28;20064;-78
2023/01/30 04:49:20;;;;;;;46.37;12.73;;;5.60;99.90;;;;;;5070797;28;20076;-76
2023/01/30 04:51:45;;;;;;;38.67;9.97;;;5.70;99.90;;;;;;5070900;28;20049;-77
2023/01/30 04:54:11;;;;;;;34.83;9.00;;;5.60;99.90;;;;;;5070803;28;20048;-77
2023/01/30 04:56:37;;;;;;;32.47;7.43;;;5.60;99.90;;;;;;5056537;28;20053;-77
2023/01/30 04:59:03;;;;;;;42.77;8.30;;;5.70;99.90;;;;;;5067634;28;20081;-77
2023/01/30 05:01:29;;;;;;;47.70;8.07;;;5.50;99.90;;;;;;5070903;28;20123;-77
2023/01/30 05:03:55;;;;;;;41.83;10.40;;;5.50;99.90;;;;;;5069840;28;20479;-77
2023/01/30 05:06:22;;;;;;;41.83;10.20;;;5.40;99.90;;;;;;5057878;28;20136;-78
2023/01/30 05:08:49;;;;;;;39.53;16.93;;;5.40;99.90;;;;;;5065718;28;20045;-77
2023/01/30 05:11:14;;;;;;;41.37;8.20;;;5.40;99.90;;;;;;5070919;28;20070;-77
2023/01/30 05:13:42;;;;;;;41.50;8.03;;;5.50;99.90;;;;;;5070838;28;20173;-77
2023/01/30 05:16:07;;;;;;;46.40;16.97;;;5.30;99.90;;;;;;5063760;28;20518;-76
2023/01/30 05:18:33;;;;;;;37.73;19.37;;;5.40;99.90;;;;;;5060227;28;20070;-77
2023/01/30 05:21:10;;;;;;;46.47;9.17;;;5.30;99.90;;;;;;5070883;28;20045;-77
2023/01/30 05:23:36;;;;;;;49.67;21.57;;;5.20;99.90;;;;;;5069793;28;20071;-76
2023/01/30 05:26:01;;;;;;;39.87;9.43;;;5.20;99.90;;;;;;5070283;28;20542;-78
2023/01/30 05:28:28;;;;;;;42.90;9.27;;;5.10;99.90;;;;;;5052374;28;20123;-77
2023/01/30 05:30:54;;;;;;;37.53;9.97;;;5.10;99.90;;;;;;5066485;28;20182;-77
2023/01/30 05:33:20;;;;;;;53.17;24.30;;;5.10;99.90;;;;;;5066519;28;20494;-77
2023/01/30 05:35:49;;;;;;;39.77;9.03;;;5.20;99.90;;;;;;5066753;28;20086;-77
2023/01/30 05:38:15;;;;;;;46.47;11.03;;;5.10;99.90;;;;;;5051889;28;20048;-77
2023/01/30 05:40:41;;;;;;;43.60;17.53;;;5.20;99.90;;;;;;5067754;28;20056;-80
2023/01/30 05:43:08;;;;;;;41.57;7.77;;;5.40;99.90;;;;;;5066307;28;20059;-77
2023/01/30 05:45:35;;;;;;;42.37;7.33;;;5.30;99.90;;;;;;5066326;28;20340;-77
2023/01/30 05:48:02;;;;;;;56.23;26.63;;;5.20;99.90;;;;;;5050985;28;20040;-78
2023/01/30 05:50:28;;;;;;;38.63;12.40;;;5.30;99.90;;;;;;5066674;28;20052;-77
2023/01/30 05:52:54;;;;;;;40.93;12.47;;;5.20;99.90;;;;;;5068889;28;20136;-78
2023/01/30 05:55:19;;;;;;;64.93;55.17;;;5.20;99.90;;;;;;5068320;28;20566;-79
2023/01/30 05:57:45;;;;;;;55.40;39.67;;;5.30;99.90;;;;;;5053404;28;20036;-78
2023/01/30 06:00:11;;;;;;;47.27;22.07;;;5.40;99.90;;;;;;5068049;28;20097;-79
2023/01/30 06:02:37;;;;;;;43.10;7.80;;;5.40;99.90;;;;;;5067421;28;20229;-77
2023/01/30 06:05:02;;;;;;;41.03;8.20;;;5.50;99.90;;;;;;5069287;28;20051;-77
2023/01/30 06:07:28;;;;;;;45.70;11.70;;;5.40;99.90;;;;;;5052619;28;20091;-77
2023/01/30 06:09:54;;;;;;;37.43;12.03;;;5.60;99.90;;;;;;5070755;28;20398;-77
2023/01/30 06:12:19;;;;;;;38.70;7.90;;;5.50;99.90;;;;;;5068844;28;20044;-77
2023/01/30 06:14:45;;;;;;;35.67;8.67;;;5.50;99.90;;;;;;5069969;28;20117;-78
2023/01/30 06:17:11;;;;;;;95.47;83.87;;;5.60;99.90;;;;;;5052787;28;20390;-77
2023/01/30 06:19:36;;;;;;;41.60;12.37;;;5.60;99.90;;;;;;5067775;28;20475;-77
2023/01/30 06:22:02;;;;;;;41.17;9.07;;;5.60;99.90;;;;;;5065417;28;20060;-77
2023/01/30 06:24:28;;;;;;;47.40;19.47;;;5.70;99.90;;;;;;5065456;28;20052;-77
2023/01/30 06:26:53;;;;;;;39.23;10.23;;;5.80;99.90;;;;;;5048630;28;20398;-78
2023/01/30 06:29:19;;;;;;;44.07;21.37;;;5.80;99.90;;;;;;5065771;28;20419;-77
2023/01/30 06:31:45;;;;;;;58.07;38.17;;;5.60;99.90;;;;;;5067575;28;20049;-78
2023/01/30 06:34:11;;;;;;;45.03;15.83;;;5.80;99.90;;;;;;5067786;28;20049;-77
2023/01/30 06:36:37;;;;;;;37.07;8.27;;;5.60;99.90;;;;;;5054345;28;20156;-77
2023/01/30 06:39:03;;;;;;;39.37;7.83;;;5.70;99.90;;;;;;5067901;28;20051;-76
2023/01/30 06:41:28;;;;;;;42.57;9.47;;;5.70;99.90;;;;;;5069217;28;20045;-77
2023/01/30 06:43:54;;;;;;;36.07;10.37;;;5.60;99.90;;;;;;5068934;28;20097;-79
2023/01/30 06:46:20;;;;;;;48.47;24.93;;;5.60;99.90;;;;;;5056627;28;20059;-79
2023/01/30 06:48:46;;;;;;;42.53;23.23;;;5.60;99.90;;;;;;5065176;28;20123;-78
2023/01/30 06:51:12;;;;;;;48.40;24.73;;;5.60;99.90;;;;;;5068812;28;20049;-78
2023/01/30 06:53:38;;;;;;;81.73;64.33;;;5.70;99.90;;;;;;5067108;28;20105;-76
2023/01/30 06:56:04;;;;;;;38.07;8.20;;;5.70;99.90;;;;;;5068521;28;20124;-77
2023/01/30 06:58:29;;;;;;;47.80;17.93;;;5.70;99.90;;;;;;5055286;28;20141;-76
2023/01/30 07:00:55;;;;;;;60.73;30.17;;;5.60;99.90;;;;;;5068532;28;20122;-78
2023/01/30 07:03:21;;;;;;;39.03;7.97;;;5.60;99.90;;;;;;5068277;28;20044;-77
2023/01/30 07:05:47;;;;;;;45.23;9.37;;;5.80;99.90;;;;;;5068533;28;20044;-77
2023/01/30 07:08:14;;;;;;;52.80;27.13;;;5.70;99.90;;;;;;5050634;28;20094;-77
2023/01/30 07:10:41;;;;;;;53.83;43.80;;;5.70;99.90;;;;;;5068519;28;20040;-77
2023/01/30 07:13:07;;;;;;;55.80;27.83;;;5.70;99.90;;;;;;5065739;28;20529;-76
2023/01/30 07:15:32;;;;;;;34.83;9.07;;;5.70;99.90;;;;;;5044898;28;20090;-78
2023/01/30 07:17:59;;;;;;;110.20;98.70;;;5.80;99.90;;;;;;5034838;28;20040;-76
2023/01/30 07:20:24;;;;;;;45.70;9.27;;;5.80;99.90;;;;;;5060770;28;20055;-76
2023/01/30 07:22:54;;;;;;;36.40;10.83;;;5.70;99.90;;;;;;5064173;28;20517;-77
2023/01/30 07:25:22;;;;;;;76.37;39.43;;;5.70;99.90;;;;;;5068826;28;20052;-77
2023/01/30 07:28:06;;;;;;;56.43;30.23;;;5.80;99.90;;;;;;5051707;28;20040;-79
2023/01/30 07:30:34;;;;;;;34.57;8.13;;;5.70;99.90;;;;;;5069571;28;20052;-77
2023/01/30 07:33:01;;;;;;;48.43;14.17;;;5.70;99.90;;;;;;5067984;28;20063;-77
2023/01/30 07:35:30;;;;;;;69.17;49.90;;;5.70;99.90;;;;;;5034361;28;20134;-78
2023/01/30 07:37:56;;;;;;;52.33;25.40;;;5.80;99.90;;;;;;5052233;28;20051;-76
2023/01/30 07:40:22;;;;;;;42.50;9.87;;;5.80;99.90;;;;;;5069256;28;20048;-77
2023/01/30 07:43:03;;;;;;;59.33;30.40;;;5.80;99.90;;;;;;5067732;28;20455;-77
2023/01/30 07:45:34;;;;;;;37.03;7.60;;;5.90;99.90;;;;;;5069367;28;20049;-77
2023/01/30 07:48:00;;;;;;;44.08;9.20;;;5.90;99.90;;;;;;5050079;28;20037;-77
2023/01/30 07:50:25;;;;;;;36.37;8.50;;;5.90;99.90;;;;;;5067091;28;20055;-77
2023/01/30 07:52:51;;;;;;;336.07;301.50;;;5.80;99.90;;;;;;5066360;28;20062;-76
2023/01/30 07:55:17;;;;;;;48.77;12.87;;;5.90;99.90;;;;;;5066474;28;20033;-77
2023/01/30 07:57:42;;;;;;;44.67;11.47;;;5.90;99.90;;;;;;5053827;28;20090;-77
2023/01/30 08:00:09;;;;;;;36.93;8.67;;;5.90;99.90;;;;;;5071849;28;20048;-78
2023/01/30 08:02:35;;;;;;;41.57;19.73;;;5.90;99.90;;;;;;5070116;28;20052;-76
2023/01/30 08:05:01;;;;;;;33.13;8.20;;;5.90;99.90;;;;;;5072380;28;20376;-77
2023/01/30 08:07:27;;;;;;;72.73;39.23;;;5.90;99.90;;;;;;5055658;28;20047;-77
2023/01/30 08:09:52;;;;;;;32.30;8.77;;;6.00;99.90;;;;;;5072259;28;20093;-79
2023/01/30 08:12:18;;;;;;;37.63;10.70;;;5.90;99.90;;;;;;5070528;28;20047;-77
2023/01/30 08:14:44;;;;;;;287.00;251.47;;;6.00;99.90;;;;;;5072077;28;20433;-76
2023/01/30 08:17:09;;;;;;;47.60;28.13;;;6.20;99.90;;;;;;5055794;28;20123;-76
2023/01/30 08:19:35;;;;;;;52.30;13.10;;;6.10;99.90;;;;;;5069383;28;20072;-77
2023/01/30 08:22:01;;;;;;;41.03;12.73;;;6.00;99.90;;;;;;5071503;28;20044;-77
2023/01/30 08:24:26;;;;;;;42.60;8.83;;;6.00;99.90;;;;;;5070970;28;20060;-77
2023/01/30 08:26:52;;;;;;;36.57;9.57;;;6.10;99.90;;;;;;5056260;28;20040;-77
2023/01/30 08:29:18;;;;;;;47.10;10.60;;;6.20;99.90;;;;;;5070854;28;20465;-77
2023/01/30 08:31:43;;;;;;;87.73;78.27;;;6.00;99.90;;;;;;5071951;28;20051;-77
2023/01/30 08:34:09;;;;;;;48.23;29.27;;;6.10;99.90;;;;;;5070357;28;20044;-78
2023/01/30 08:36:35;;;;;;;95.37;84.97;;;6.20;99.90;;;;;;5057645;28;20139;-77
2023/01/30 08:39:00;;;;;;;133.57;120.23;;;6.20;99.90;;;;;;5069337;28;20044;-78
2023/01/30 08:41:27;;;;;;;44.07;11.80;;;6.10;99.90;;;;;;5071683;28;20056;-77
2023/01/30 08:43:53;;;;;;;47.60;11.23;;;6.10;99.90;;;;;;5070528;28;20434;-77
2023/01/30 08:46:20;;;;;;;127.47;112.57;;;6.20;99.90;;;;;;5061203;28;20087;-77
2023/01/30 08:48:47;;;;;;;59.47;40.30;;;6.20;99.90;;;;;;5068484;28;20044;-77
2023/01/30 08:51:13;;;;;;;38.23;11.00;;;6.30;99.90;;;;;;5070510;28;20057;-77
2023/01/30 08:53:39;;;;;;;102.30;81.57;;;6.30;99.90;;;;;;5070399;28;20078;-79
2023/01/30 08:56:05;;;;;;;31.43;8.53;;;6.40;99.90;;;;;;5070216;28;20481;-80
2023/01/30 08:58:30;;;;;;;92.93;76.53;;;6.40;99.90;;;;;;5060303;28;20119;-76
2023/01/30 09:00:56;;;;;;;37.50;9.43;;;6.50;99.90;;;;;;5069715;28;20127;-77
2023/01/30 09:03:22;;;;;;;42.13;12.07;;;6.50;99.90;;;;;;5070714;28;20478;-76
2023/01/30 09:05:54;;;;;;;134.97;109.77;;;6.40;99.90;;;;;;5071530;28;20049;-77
2023/01/30 09:08:20;;;;;;;413.63;373.80;;;6.40;99.90;;;;;;5053110;28;20048;-76
2023/01/30 09:10:46;;;;;;;42.67;11.60;;;6.40;99.90;;;;;;5070036;28;20052;-79
2023/01/30 09:13:12;;;;;;;44.43;13.00;;;6.50;99.90;;;;;;5069997;28;20530;-77
2023/01/30 09:15:44;;;;;;;44.90;13.40;;;6.30;99.90;;;;;;5051045;28;20052;-78
2023/01/30 09:18:09;;;;;;;67.77;52.63;;;6.30;99.90;;;;;;5049198;28;20115;-78
2023/01/30 09:20:35;;;;;;;788.50;556.50;;;6.40;99.90;;;;;;5069457;28;20447;-77
2023/01/30 09:23:01;;;;;;;115.57;103.50;;;6.50;99.90;;;;;;5068939;28;20048;-77
2023/01/30 09:25:27;;;;;;;59.33;44.03;;;6.30;99.90;;;;;;5070693;28;20044;-77
2023/01/30 09:27:53;;;;;;;40.90;13.23;;;6.40;99.90;;;;;;5052949;28;20391;-77
2023/01/30 09:30:19;;;;;;;48.00;10.67;;;6.40;99.90;;;;;;5069515;28;20053;-78
2023/01/30 09:32:45;;;;;;;58.93;19.67;;;6.20;99.90;;;;;;5068211;28;20543;-77
2023/01/30 09:35:11;;;;;;;80.43;51.97;;;6.10;99.90;;;;;;5070590;28;20040;-77
2023/01/30 09:37:36;;;;;;;56.30;15.67;;;6.10;99.90;;;;;;5053585;28;20207;-76
2023/01/30 09:40:03;;;;;;;41.33;9.03;;;6.20;99.90;;;;;;5070490;28;20173;-77
2023/01/30 09:42:50;;;;;;;45.77;10.70;;;6.30;99.90;;;;;;5068995;28;20044;-77
2023/01/30 09:45:38;;;;;;;119.87;107.00;;;6.40;99.90;;;;;;5066933;28;20052;-76
2023/01/30 09:48:15;;;;;;;51.80;13.87;;;6.50;99.90;;;;;;5050311;28;20098;-80
2023/01/30 09:51:01;;;;;;;52.47;21.27;;;6.50;99.90;;;;;;5066124;28;20048;-77
2023/01/30 09:53:54;;;;;;;41.73;10.17;;;6.60;99.90;;;;;;5065088;28;20471;-77
2023/01/30 09:56:20;;;;;;;59.70;31.33;;;6.80;99.90;;;;;;5054669;28;20044;-80
2023/01/30 09:59:12;;;;;;;69.33;53.60;;;6.70;99.90;;;;;;5060436;28;20044;-77
2023/01/30 10:01:46;;;;;;;304.95;253.07;;;6.70;99.90;;;;;;5065476;28;20401;-76
2023/01/30 10:04:23;;;;;;;53.77;25.33;;;6.70;99.90;;;;;;5064643;28;20076;-79
2023/01/30 10:07:15;;;;;;;190.53;130.03;;;6.90;99.90;;;;;;5050498;28;20463;-78
2023/01/30 10:10:02;;;;;;;43.33;9.13;;;6.90;99.90;;;;;;5061451;28;20055;-78
2023/01/30 10:13:09;;;;;;;189.63;166.37;;;6.90;99.90;;;;;;5063244;28;20068;-78
2023/01/30 10:15:52;;;;;;;65.73;43.67;;;6.90;99.90;;;;;;5064940;28;20482;-78
2023/01/30 10:18:23;;;;;;;38.47;9.50;;;7.30;99.90;;;;;;5049431;28;20090;-77
2023/01/30 10:21:23;;;;;;;26.13;16.58;;;7.20;99.90;;;;;;5065042;28;20086;-77
2023/01/30 10:24:11;;;;;;;44.30;40.33;;;6.60;99.90;;;;;;5064012;28;20427;-77
2023/01/30 10:26:41;;;;;;;36.03;32.43;;;6.30;99.90;;;;;;5051293;28;20052;-77
2023/01/30 10:29:16;;;;;;;13.87;6.93;;;6.10;99.90;;;;;;5063157;28;20052;-78
2023/01/30 10:32:18;;;;;;;14.57;13.23;;;5.80;99.90;;;;;;5065026;28;20182;-77
2023/01/30 10:34:52;;;;;;;6.10;3.67;;;5.30;99.90;;;;;;5054657;28;20079;-79
2023/01/30 10:37:56;;;;;;;4.00;1.33;;;5.20;99.90;;;;;;5049670;28;20166;-77
2023/01/30 10:40:32;;;;;;;12.17;10.23;;;5.10;99.90;;;;;;5062479;28;20044;-77
2023/01/30 10:43:46;;;;;;;8.50;2.73;;;6.00;99.90;;;;;;5063785;28;20139;-78
2023/01/30 10:46:27;;;;;;;12.03;7.07;;;6.70;99.90;;;;;;4957535;28;20054;-77
2023/01/30 10:49:04;;;;;;;33.88;28.63;;;7.00;99.90;;;;;;4963133;28;20058;-77
2023/01/30 10:51:43;;;;;;;15.30;5.10;;;7.50;99.90;;;;;;5033352;28;20128;-76
2023/01/30 10:54:30;;;;;;;16.23;5.77;;;7.90;99.90;;;;;;5061504;28;20056;-78
2023/01/30 10:57:22;;;;;;;24.07;13.27;;;7.70;99.90;;;;;;5046988;28;20533;-77
2023/01/30 11:00:09;;;;;;;47.00;40.50;;;7.50;99.90;;;;;;5060584;28;20521;-77
2023/01/30 11:02:39;;;;;;;28.20;22.43;;;7.60;99.90;;;;;;5058578;28;20037;-77
2023/01/30 11:05:46;;;;;;;29.00;11.57;;;7.70;99.90;;;;;;5061943;28;20845;-77
2023/01/30 11:08:19;;;;;;;163.63;149.70;;;8.30;99.90;;;;;;5042511;28;20040;-78
2023/01/30 11:10:45;;;;;;;25.73;12.20;;;8.30;99.90;;;;;;5060775;28;20048;-78
2023/01/30 11:13:16;;;;;;;23.97;10.70;;;8.70;99.90;;;;;;5062082;28;20124;-77
2023/01/30 11:15:45;;;;;;;30.77;23.85;;;8.90;99.90;;;;;;5064880;28;20074;-78
2023/01/30 11:18:11;;;;;;;130.47;117.07;;;9.00;99.90;;;;;;5046707;28;20063;-79
2023/01/30 11:20:44;;;;;;;28.93;14.33;;;8.90;99.90;;;;;;5063716;28;20061;-77
2023/01/30 11:23:34;;;;;;;43.13;36.83;;;9.30;99.90;;;;;;5061516;28;20044;-79
2023/01/30 11:26:02;;;;;;;42.53;38.33;;;9.00;99.90;;;;;;5061917;28;20045;-78
2023/01/30 11:28:41;;;;;;;28.93;18.30;;;8.70;99.90;;;;;;5048481;28;20052;-77
2023/01/30 11:31:19;;;;;;;27.93;13.13;;;9.00;99.90;;;;;;5060183;28;20055;-78
2023/01/30 11:33:58;;;;;;;32.77;27.13;;;9.50;99.90;;;;;;5060177;28;20049;-80
2023/01/30 11:36:29;;;;;;;36.17;23.27;;;9.60;99.90;;;;;;5050114;28;20095;-78
2023/01/30 11:39:20;;;;;;;81.87;75.77;;;9.80;99.90;;;;;;5058603;28;20131;-78
2023/01/30 11:42:02;;;;;;;61.55;56.17;;;9.90;99.90;;;;;;5060142;28;20048;-77
2023/01/30 11:44:29;;;;;;;;;;;9.30;99.90;;;;;;5062452;28;20048;-77
2023/01/30 11:46:59;;;;;;;25.10;14.20;;;8.50;99.90;;;;;;5046691;28;20519;-77
2023/01/30 11:49:31;;;;;;;35.30;31.87;;;8.20;99.90;;;;;;5060392;28;20048;-77
2023/01/30 11:51:59;;;;;;;24.43;12.43;;;7.70;99.90;;;;;;5061334;28;20052;-78
2023/01/30 11:54:43;;;;;;;43.47;37.67;;;7.90;99.90;;;;;;5061122;28;20036;-79
2023/01/30 11:57:13;;;;;;;36.20;16.40;;;8.10;99.90;;;;;;5043901;28;20120;-80
2023/01/30 11:59:55;;;;;;;38.70;32.57;;;7.80;99.90;;;;;;5059978;28;20083;-77
2023/01/30 12:02:35;;;;;;;21.47;8.33;;;7.70;99.90;;;;;;5061274;28;20048;-77
2023/01/30 12:05:23;;;;;;;27.87;19.43;;;7.60;99.90;;;;;;5062399;28;20190;-77
2023/01/30 12:07:51;;;;;;;27.40;12.10;;;7.50;99.90;;;;;;5046610;28;20051;-78
2023/01/30 12:10:29;;;;;;;32.97;12.50;;;7.40;99.90;;;;;;5060957;28;20131;-77
2023/01/30 12:13:00;;;;;;;28.87;8.70;;;7.50;99.90;;;;;;5062199;28;20122;-77
2023/01/30 12:15:29;;;;;;;36.47;15.20;;;7.80;99.90;;;;;;5064397;28;20128;-78
2023/01/30 12:18:30;;;;;;;37.30;13.63;;;7.70;99.90;;;;;;5048998;28;20052;-77
2023/01/30 12:21:03;;;;;;;37.53;11.60;;;7.60;99.90;;;;;;5077055;28;20114;-77
2023/01/30 12:23:47;;;;;;;38.43;17.30;;;7.80;99.90;;;;;;5061487;28;20051;-77
2023/01/30 12:26:19;;;;;;;37.93;13.43;;;7.80;99.90;;;;;;5053361;28;20059;-77
2023/01/30 12:29:12;;;;;;;32.47;12.37;;;7.60;99.90;;;;;;5057288;28;20055;-77
2023/01/30 12:31:45;;;;;;;33.30;10.70;;;7.70;99.90;;;;;;5064633;28;20457;-78
2023/01/30 12:34:11;;;;;;;32.63;24.03;;;8.30;99.90;;;;;;5062197;28;20087;-78
2023/01/30 12:36:49;;;;;;;40.27;16.60;;;8.10;99.90;;;;;;5050475;28;20409;-76
2023/01/30 12:39:33;;;;;;;33.57;12.93;;;7.90;99.90;;;;;;5064916;28;20059;-78
2023/01/30 12:42:37;;;;;;;33.07;14.27;;;7.90;99.90;;;;;;5065536;28;20056;-77
2023/01/30 12:45:31;;;;;;;35.63;20.03;;;8.00;99.90;;;;;;5066986;28;20508;-77
2023/01/30 12:48:06;;;;;;;162.13;147.47;;;7.90;99.90;;;;;;5052469;28;20109;-77
2023/01/30 12:50:44;;;;;;;164.73;150.63;;;7.90;99.90;;;;;;5068693;28;20090;-77
2023/01/30 12:53:24;;;;;;;31.90;14.33;;;7.80;99.90;;;;;;5067766;28;20391;-77
2023/01/30 12:56:31;;;;;;;36.10;16.35;;;8.20;99.90;;;;;;5068832;28;20453;-77
2023/01/30 12:59:13;;;;;;;37.57;17.77;;;8.20;99.90;;;;;;5076924;28;20052;-77
2023/01/30 13:01:51;;;;;;;29.23;10.63;;;8.20;99.90;;;;;;5068757;28;20394;-77
2023/01/30 13:04:39;;;;;;;48.13;25.30;;;8.20;99.90;;;;;;5065844;28;20090;-77